sensor_id;sensor_type;location;lat;lon;timestamp;pressure;altitude;pressure_sealevel;temperature;humidity
60345;BME280;46188;52.324;8.032;2023-04-26T00:01:38;100614.69;;;3.59;100.00
60345;BME280;46188;52.324;8.032;2023-04-26T00:04:04;100624.03;;;3.54;100.00
60345;BME280;46188;52.324;8.032;2023-04-26T00:06:29;100624.13;;;3.55;100.00
60345;BME280;46188;52.324;8.032;2023-04-26T00:08:54;100636.19;;;3.53;100.00
60345;BME280;46188;52.324;8.032;2023-04-26T00:11:20;100636.19;;;3.53;100.00
60345;BME280;46188;52.324;8.032;2023-04-26T00:13:45;100631.59;;;3.47;100.00
60345;BME280;46188;52.324;8.032;2023-04-26T00:16:12;100633.19;;;3.44;100.00
60345;BME280;46188;52.324;8.032;2023-04-26T00:18:38;100635.78;;;3.44;100.00
60345;BME280;46188;52.324;8.032;2023-04-26T00:21:03;100636.19;;;3.53;100.00
60345;BME280;46188;52.324;8.032;2023-04-26T00:23:29;100635.13;;;3.48;100.00
60345;BME280;46188;52.324;8.032;2023-04-26T00:25:55;100630.53;;;3.42;100.00
60345;BME280;46188;52.324;8.032;2023-04-26T00:28:21;100630.34;;;3.38;100.00
60345;BME280;46188;52.324;8.032;2023-04-26T00:30:46;100632.09;;;3.39;100.00
60345;BME280;46188;52.324;8.032;2023-04-26T00:33:13;100629.50;;;3.39;100.00
60345;BME280;46188;52.324;8.032;2023-04-26T00:35:38;100630.97;;;3.32;100.00
60345;BME280;46188;52.324;8.032;2023-04-26T00:38:03;100636.31;;;3.35;100.00
60345;BME280;46188;52.324;8.032;2023-04-26T00:40:29;100631.66;;;3.28;100.00
60345;BME280;46188;52.324;8.032;2023-04-26T00:42:58;100641.03;;;3.24;100.00
60345;BME280;46188;52.324;8.032;2023-04-26T00:45:23;100626.25;;;3.23;100.00
60345;BME280;46188;52.324;8.032;2023-04-26T00:47:49;100636.81;;;3.26;100.00
60345;BME280;46188;52.324;8.032;2023-04-26T00:50:15;100632.53;;;3.28;100.00
60345;BME280;46188;52.324;8.032;2023-04-26T00:52:42;100632.47;;;3.27;100.00
60345;BME280;46188;52.324;8.032;2023-04-26T00:55:07;100635.44;;;3.15;100.00
60345;BME280;46188;52.324;8.032;2023-04-26T00:57:33;100634.44;;;3.11;100.00
60345;BME280;46188;52.324;8.032;2023-04-26T00:59:58;100628.31;;;3.11;100.00
60345;BME280;46188;52.324;8.032;2023-04-26T01:02:23;100620.41;;;3.08;100.00
60345;BME280;46188;52.324;8.032;2023-04-26T01:04:49;100629.00;;;3.07;100.00
60345;BME280;46188;52.324;8.032;2023-04-26T01:07:14;100624.75;;;3.09;100.00
60345;BME280;46188;52.324;8.032;2023-04-26T01:09:40;100624.75;;;3.09;100.00
60345;BME280;46188;52.324;8.032;2023-04-26T01:12:06;100623.94;;;3.10;100.00
60345;BME280;46188;52.324;8.032;2023-04-26T01:14:32;100627.84;;;3.00;100.00
60345;BME280;46188;52.324;8.032;2023-04-26T01:16:58;100622.78;;;3.03;100.00
60345;BME280;46188;52.324;8.032;2023-04-26T01:19:23;100632.44;;;3.06;100.00
60345;BME280;46188;52.324;8.032;2023-04-26T01:21:49;100633.13;;;3.02;100.00
60345;BME280;46188;52.324;8.032;2023-04-26T01:24:15;100635.66;;;3.00;100.00
60345;BME280;46188;52.324;8.032;2023-04-26T01:26:41;100629.44;;;2.97;100.00
60345;BME280;46188;52.324;8.032;2023-04-26T01:29:17;100628.22;;;2.88;100.00
60345;BME280;46188;52.324;8.032;2023-04-26T01:31:43;100640.66;;;2.95;100.00
60345;BME280;46188;52.324;8.032;2023-04-26T01:34:08;100624.63;;;2.86;100.00
60345;BME280;46188;52.324;8.032;2023-04-26T01:36:34;100621.34;;;2.90;100.00
60345;BME280;46188;52.324;8.032;2023-04-26T01:38:59;100624.59;;;2.85;100.00
60345;BME280;46188;52.324;8.032;2023-04-26T01:41:24;100625.53;;;2.87;100.00
60345;BME280;46188;52.324;8.032;2023-04-26T01:43:50;100626.22;;;2.83;100.00
60345;BME280;46188;52.324;8.032;2023-04-26T01:46:15;100627.28;;;2.88;100.00
60345;BME280;46188;52.324;8.032;2023-04-26T01:48:40;100633.56;;;2.91;100.00
60345;BME280;46188;52.324;8.032;2023-04-26T01:51:05;100628.53;;;2.96;100.00
60345;BME280;46188;52.324;8.032;2023-04-26T01:53:31;100633.56;;;2.91;100.00
60345;BME280;46188;52.324;8.032;2023-04-26T01:55:59;100632.72;;;2.92;100.00
60345;BME280;46188;52.324;8.032;2023-04-26T01:58:25;100621.97;;;2.85;100.00
60345;BME280;46188;52.324;8.032;2023-04-26T02:00:51;100623.47;;;2.80;100.00
60345;BME280;46188;52.324;8.032;2023-04-26T02:03:16;100631.63;;;2.87;100.00
60345;BME280;46188;52.324;8.032;2023-04-26T02:05:41;100636.09;;;2.90;100.00
60345;BME280;46188;52.324;8.032;2023-04-26T02:08:07;100623.53;;;2.81;100.00
60345;BME280;46188;52.324;8.032;2023-04-26T02:10:32;100628.66;;;2.80;100.00
60345;BME280;46188;52.324;8.032;2023-04-26T02:12:57;100626.97;;;2.80;100.00
60345;BME280;46188;52.324;8.032;2023-04-26T02:15:23;100634.94;;;2.83;100.00
60345;BME280;46188;52.324;8.032;2023-04-26T02:17:48;100626.13;;;2.81;100.00
60345;BME280;46188;52.324;8.032;2023-04-26T02:20:13;100631.22;;;2.78;100.00
60345;BME280;46188;52.324;8.032;2023-04-26T02:22:39;100626.13;;;2.81;100.00
60345;BME280;46188;52.324;8.032;2023-04-26T02:25:04;100628.75;;;2.81;100.00
60345;BME280;46188;52.324;8.032;2023-04-26T02:27:30;100624.22;;;2.77;100.00
60345;BME280;46188;52.324;8.032;2023-04-26T02:29:56;100635.13;;;2.68;100.00
60345;BME280;46188;52.324;8.032;2023-04-26T02:32:22;100626.56;;;2.71;100.00
60345;BME280;46188;52.324;8.032;2023-04-26T02:34:47;100631.47;;;2.65;100.00
60345;BME280;46188;52.324;8.032;2023-04-26T02:37:12;100635.00;;;2.65;100.00
60345;BME280;46188;52.324;8.032;2023-04-26T02:39:37;100635.06;;;2.67;100.00
60345;BME280;46188;52.324;8.032;2023-04-26T02:42:08;100639.81;;;2.57;100.00
60345;BME280;46188;52.324;8.032;2023-04-26T02:44:33;100638.47;;;2.66;100.00
60345;BME280;46188;52.324;8.032;2023-04-26T02:46:58;100639.03;;;2.58;100.00
60345;BME280;46188;52.324;8.032;2023-04-26T02:49:24;100636.28;;;2.55;100.00
60345;BME280;46188;52.324;8.032;2023-04-26T02:51:49;100639.47;;;2.50;100.00
60345;BME280;46188;52.324;8.032;2023-04-26T02:54:15;100634.47;;;2.54;100.00
60345;BME280;46188;52.324;8.032;2023-04-26T02:56:40;100639.03;;;2.58;100.00
60345;BME280;46188;52.324;8.032;2023-04-26T02:59:05;100637.78;;;2.50;100.00
60345;BME280;46188;52.324;8.032;2023-04-26T03:01:31;100641.19;;;2.49;100.00
60345;BME280;46188;52.324;8.032;2023-04-26T03:03:56;100638.50;;;2.48;100.00
60345;BME280;46188;52.324;8.032;2023-04-26T03:06:21;100638.03;;;2.37;100.00
60345;BME280;46188;52.324;8.032;2023-04-26T03:08:46;100632.97;;;2.40;100.00
60345;BME280;46188;52.324;8.032;2023-04-26T03:11:12;100633.94;;;2.42;100.00
60345;BME280;46188;52.324;8.032;2023-04-26T03:13:37;100631.47;;;2.45;100.00
60345;BME280;46188;52.324;8.032;2023-04-26T03:16:02;100639.34;;;2.47;100.00
60345;BME280;46188;52.324;8.032;2023-04-26T03:18:27;100623.75;;;2.47;100.00
60345;BME280;46188;52.324;8.032;2023-04-26T03:20:53;100634.16;;;2.47;100.00
60345;BME280;46188;52.324;8.032;2023-04-26T03:23:18;100628.19;;;2.49;100.00
60345;BME280;46188;52.324;8.032;2023-04-26T03:25:44;100625.50;;;2.48;100.00
60345;BME280;46188;52.324;8.032;2023-04-26T03:28:09;100625.97;;;2.39;100.00
60345;BME280;46188;52.324;8.032;2023-04-26T03:30:34;100625.50;;;2.48;100.00
60345;BME280;46188;52.324;8.032;2023-04-26T03:33:00;100630.78;;;2.49;100.00
60345;BME280;46188;52.324;8.032;2023-04-26T03:35:25;100623.84;;;2.50;100.00
60345;BME280;46188;52.324;8.032;2023-04-26T03:37:50;100627.97;;;2.45;100.00
60345;BME280;46188;52.324;8.032;2023-04-26T03:40:15;100614.34;;;2.50;100.00
60345;BME280;46188;52.324;8.032;2023-04-26T03:42:41;100620.38;;;2.49;100.00
60345;BME280;46188;52.324;8.032;2023-04-26T03:45:07;100614.50;;;2.53;100.00
60345;BME280;46188;52.324;8.032;2023-04-26T03:47:32;100622.09;;;2.49;100.00
60345;BME280;46188;52.324;8.032;2023-04-26T03:49:57;100618.56;;;2.48;100.00
60345;BME280;46188;52.324;8.032;2023-04-26T03:52:23;100621.88;;;2.44;100.00
60345;BME280;46188;52.324;8.032;2023-04-26T03:54:48;100632.97;;;2.40;100.00
60345;BME280;46188;52.324;8.032;2023-04-26T03:57:13;100634.16;;;2.47;100.00
60345;BME280;46188;52.324;8.032;2023-04-26T03:59:38;100622.69;;;2.43;100.00
60345;BME280;46188;52.324;8.032;2023-04-26T04:02:04;100621.59;;;2.38;100.00
60345;BME280;46188;52.324;8.032;2023-04-26T04:04:29;100623.91;;;2.32;100.00
60345;BME280;46188;52.324;8.032;2023-04-26T04:06:54;100622.28;;;2.34;100.00
60345;BME280;46188;52.324;8.032;2023-04-26T04:09:20;100627.47;;;2.34;100.00
60345;BME280;46188;52.324;8.032;2023-04-26T04:11:45;100626.63;;;2.35;100.00
60345;BME280;46188;52.324;8.032;2023-04-26T04:14:10;100625.53;;;2.30;100.00
60345;BME280;46188;52.324;8.032;2023-04-26T04:16:36;100625.38;;;2.27;100.00
60345;BME280;46188;52.324;8.032;2023-04-26T04:19:01;100625.13;;;2.20;100.00
60345;BME280;46188;52.324;8.032;2023-04-26T04:21:27;100619.44;;;2.29;100.00
60345;BME280;46188;52.324;8.032;2023-04-26T04:23:52;100630.00;;;2.32;100.00
60345;BME280;46188;52.324;8.032;2023-04-26T04:26:18;100635.28;;;2.34;100.00
60345;BME280;46188;52.324;8.032;2023-04-26T04:28:43;100633.41;;;2.31;100.00
60345;BME280;46188;52.324;8.032;2023-04-26T04:31:11;100633.19;;;2.27;100.00
60345;BME280;46188;52.324;8.032;2023-04-26T04:33:36;100640.56;;;2.17;100.00
60345;BME280;46188;52.324;8.032;2023-04-26T04:36:02;100636.25;;;2.18;100.00
60345;BME280;46188;52.324;8.032;2023-04-26T04:38:27;100636.19;;;2.16;100.00
60345;BME280;46188;52.324;8.032;2023-04-26T04:40:53;100635.78;;;2.27;100.00
60345;BME280;46188;52.324;8.032;2023-04-26T04:43:18;100640.63;;;2.37;100.00
60345;BME280;46188;52.324;8.032;2023-04-26T04:45:44;100638.63;;;2.31;100.00
60345;BME280;46188;52.324;8.032;2023-04-26T04:48:09;100635.00;;;2.28;100.00
60345;BME280;46188;52.324;8.032;2023-04-26T04:50:37;100632.53;;;2.31;100.00
60345;BME280;46188;52.324;8.032;2023-04-26T04:53:02;100630.97;;;2.34;100.00
60345;BME280;46188;52.324;8.032;2023-04-26T04:55:28;100631.72;;;2.32;100.00
60345;BME280;46188;52.324;8.032;2023-04-26T04:57:53;100641.28;;;2.33;100.00
60345;BME280;46188;52.324;8.032;2023-04-26T05:00:18;100646.66;;;2.36;100.00
60345;BME280;46188;52.324;8.032;2023-04-26T05:02:44;100643.66;;;2.46;100.00
60345;BME280;46188;52.324;8.032;2023-04-26T05:05:09;100647.50;;;2.54;100.00
60345;BME280;46188;52.324;8.032;2023-04-26T05:07:35;100643.38;;;2.59;100.00
60345;BME280;46188;52.324;8.032;2023-04-26T05:10:00;100642.31;;;2.74;100.00
60345;BME280;46188;52.324;8.032;2023-04-26T05:12:26;100650.47;;;2.82;100.00
60345;BME280;46188;52.324;8.032;2023-04-26T05:14:51;100650.06;;;2.72;100.00
60345;BME280;46188;52.324;8.032;2023-04-26T05:17:16;100647.72;;;2.79;100.00
60345;BME280;46188;52.324;8.032;2023-04-26T05:19:41;100652.00;;;2.76;100.00
60345;BME280;46188;52.324;8.032;2023-04-26T05:22:07;100645.88;;;2.76;100.00
60345;BME280;46188;52.324;8.032;2023-04-26T05:24:32;100654.69;;;2.80;100.00
60345;BME280;46188;52.324;8.032;2023-04-26T05:26:58;100654.59;;;2.76;100.00
60345;BME280;46188;52.324;8.032;2023-04-26T05:29:28;100657.25;;;2.78;100.00
60345;BME280;46188;52.324;8.032;2023-04-26T05:31:53;100646.22;;;2.84;100.00
60345;BME280;46188;52.324;8.032;2023-04-26T05:34:18;100653.81;;;2.79;100.00
60345;BME280;46188;52.324;8.032;2023-04-26T05:36:43;100662.19;;;2.91;100.00
60345;BME280;46188;52.324;8.032;2023-04-26T05:39:09;100660.56;;;2.93;100.00
60345;BME280;46188;52.324;8.032;2023-04-26T05:41:34;100660.69;;;2.97;100.00
60345;BME280;46188;52.324;8.032;2023-04-26T05:43:59;100665.47;;;3.07;100.00
60345;BME280;46188;52.324;8.032;2023-04-26T05:46:25;100664.91;;;3.14;100.00
60345;BME280;46188;52.324;8.032;2023-04-26T05:48:50;100669.69;;;3.24;100.00
60345;BME280;46188;52.324;8.032;2023-04-26T05:51:16;100670.75;;;3.28;100.00
60345;BME280;46188;52.324;8.032;2023-04-26T05:53:41;100669.97;;;3.30;100.00
60345;BME280;46188;52.324;8.032;2023-04-26T05:56:06;100671.97;;;3.36;100.00
60345;BME280;46188;52.324;8.032;2023-04-26T05:58:31;100671.19;;;3.39;100.00
60345;BME280;46188;52.324;8.032;2023-04-26T06:00:57;100680.81;;;3.40;100.00
60345;BME280;46188;52.324;8.032;2023-04-26T06:03:23;100680.75;;;3.38;100.00
60345;BME280;46188;52.324;8.032;2023-04-26T06:05:48;100680.25;;;3.47;100.00
60345;BME280;46188;52.324;8.032;2023-04-26T06:08:13;100682.91;;;3.48;100.00
60345;BME280;46188;52.324;8.032;2023-04-26T06:10:39;100678.66;;;3.50;100.00
60345;BME280;46188;52.324;8.032;2023-04-26T06:13:04;100686.47;;;3.50;100.00
60345;BME280;46188;52.324;8.032;2023-04-26T06:15:29;100685.53;;;3.48;100.00
60345;BME280;46188;52.324;8.032;2023-04-26T06:17:55;100688.47;;;3.56;100.00
60345;BME280;46188;52.324;8.032;2023-04-26T06:20:21;100694.06;;;3.65;100.00
60345;BME280;46188;52.324;8.032;2023-04-26T06:22:46;100691.56;;;3.68;100.00
60345;BME280;46188;52.324;8.032;2023-04-26T06:25:11;100693.13;;;3.84;100.00
60345;BME280;46188;52.324;8.032;2023-04-26T06:27:36;100690.13;;;3.96;100.00
60345;BME280;46188;52.324;8.032;2023-04-26T06:30:04;100689.72;;;4.08;100.00
60345;BME280;46188;52.324;8.032;2023-04-26T06:32:30;100691.88;;;4.18;100.00
60345;BME280;46188;52.324;8.032;2023-04-26T06:34:55;100702.56;;;4.24;100.00
60345;BME280;46188;52.324;8.032;2023-04-26T06:37:20;100695.28;;;4.38;100.00
60345;BME280;46188;52.324;8.032;2023-04-26T06:39:45;100694.66;;;4.44;100.00
60345;BME280;46188;52.324;8.032;2023-04-26T06:42:11;100688.13;;;4.55;100.00
60345;BME280;46188;52.324;8.032;2023-04-26T06:44:36;100690.56;;;4.73;100.00
60345;BME280;46188;52.324;8.032;2023-04-26T06:47:01;100694.50;;;4.86;100.00
60345;BME280;46188;52.324;8.032;2023-04-26T06:49:26;100694.19;;;5.01;100.00
60345;BME280;46188;52.324;8.032;2023-04-26T06:51:52;100684.78;;;5.06;100.00
60345;BME280;46188;52.324;8.032;2023-04-26T06:54:20;100689.63;;;5.20;100.00
60345;BME280;46188;52.324;8.032;2023-04-26T06:56:45;100699.75;;;5.34;100.00
60345;BME280;46188;52.324;8.032;2023-04-26T06:59:11;100693.97;;;5.43;100.00
60345;BME280;46188;52.324;8.032;2023-04-26T07:01:37;100692.78;;;5.59;100.00
60345;BME280;46188;52.324;8.032;2023-04-26T07:04:04;100690.16;;;5.59;100.00
60345;BME280;46188;52.324;8.032;2023-04-26T07:06:31;100693.09;;;5.68;100.00
60345;BME280;46188;52.324;8.032;2023-04-26T07:08:57;100689.84;;;5.76;100.00
60345;BME280;46188;52.324;8.032;2023-04-26T07:11:23;100695.13;;;5.77;100.00
60345;BME280;46188;52.324;8.032;2023-04-26T07:13:48;100693.00;;;5.91;100.00
60345;BME280;46188;52.324;8.032;2023-04-26T07:16:13;100702.25;;;6.07;100.00
60345;BME280;46188;52.324;8.032;2023-04-26T07:18:39;100701.00;;;6.21;100.00
60345;BME280;46188;52.324;8.032;2023-04-26T07:21:04;100708.44;;;6.36;100.00
60345;BME280;46188;52.324;8.032;2023-04-26T07:23:31;100698.53;;;6.55;100.00
60345;BME280;46188;52.324;8.032;2023-04-26T07:25:56;100695.19;;;6.59;100.00
60345;BME280;46188;52.324;8.032;2023-04-26T07:28:21;100693.81;;;6.43;100.00
60345;BME280;46188;52.324;8.032;2023-04-26T07:30:47;100707.28;;;6.55;100.00
60345;BME280;46188;52.324;8.032;2023-04-26T07:33:12;100702.53;;;6.71;100.00
60345;BME280;46188;52.324;8.032;2023-04-26T07:35:37;100701.25;;;6.58;100.00
60345;BME280;46188;52.324;8.032;2023-04-26T07:38:02;100705.25;;;6.74;100.00
60345;BME280;46188;52.324;8.032;2023-04-26T07:40:28;100697.84;;;6.89;100.00
60345;BME280;46188;52.324;8.032;2023-04-26T07:42:54;100694.00;;;7.07;100.00
60345;BME280;46188;52.324;8.032;2023-04-26T07:45:19;100697.31;;;7.01;100.00
60345;BME280;46188;52.324;8.032;2023-04-26T07:47:45;100698.75;;;7.20;100.00
60345;BME280;46188;52.324;8.032;2023-04-26T07:50:10;100692.09;;;7.33;99.43
60345;BME280;46188;52.324;8.032;2023-04-26T07:52:35;100707.34;;;7.48;96.79
60345;BME280;46188;52.324;8.032;2023-04-26T07:55:01;100701.97;;;7.42;95.71
60345;BME280;46188;52.324;8.032;2023-04-26T07:57:26;100710.09;;;7.52;93.78
60345;BME280;46188;52.324;8.032;2023-04-26T07:59:52;100710.22;;;7.57;93.07
60345;BME280;46188;52.324;8.032;2023-04-26T08:02:18;100711.59;;;7.76;90.93
60345;BME280;46188;52.324;8.032;2023-04-26T08:04:48;100704.28;;;8.32;87.96
60345;BME280;46188;52.324;8.032;2023-04-26T08:07:14;100704.69;;;8.49;86.78
60345;BME280;46188;52.324;8.032;2023-04-26T08:09:40;100696.75;;;8.46;85.21
60345;BME280;46188;52.324;8.032;2023-04-26T08:12:05;100709.81;;;8.43;84.52
60345;BME280;46188;52.324;8.032;2023-04-26T08:14:31;100698.84;;;8.25;83.85
60345;BME280;46188;52.324;8.032;2023-04-26T08:16:57;100705.78;;;8.23;85.10
60345;BME280;46188;52.324;8.032;2023-04-26T08:19:22;100713.72;;;8.24;84.75
60345;BME280;46188;52.324;8.032;2023-04-26T08:21:48;100709.19;;;8.19;84.73
60345;BME280;46188;52.324;8.032;2023-04-26T08:24:13;100712.44;;;8.08;83.04
60345;BME280;46188;52.324;8.032;2023-04-26T08:26:38;100711.44;;;8.03;82.91
60345;BME280;46188;52.324;8.032;2023-04-26T08:29:03;100706.66;;;8.23;82.24
60345;BME280;46188;52.324;8.032;2023-04-26T08:31:29;100712.44;;;8.08;78.73
60345;BME280;46188;52.324;8.032;2023-04-26T08:33:54;100716.22;;;8.20;78.30
60345;BME280;46188;52.324;8.032;2023-04-26T08:36:19;100707.66;;;8.28;76.68
60345;BME280;46188;52.324;8.032;2023-04-26T08:38:45;100712.84;;;8.62;76.17
60345;BME280;46188;52.324;8.032;2023-04-26T08:41:12;100703.63;;;8.79;74.12
60345;BME280;46188;52.324;8.032;2023-04-26T08:43:41;100714.34;;;8.90;72.84
60345;BME280;46188;52.324;8.032;2023-04-26T08:46:10;100712.63;;;8.91;72.07
60345;BME280;46188;52.324;8.032;2023-04-26T08:48:36;100706.31;;;9.25;70.75
60345;BME280;46188;52.324;8.032;2023-04-26T08:51:02;100703.97;;;9.39;68.31
60345;BME280;46188;52.324;8.032;2023-04-26T08:53:28;100704.78;;;9.36;67.40
60345;BME280;46188;52.324;8.032;2023-04-26T08:55:54;100708.72;;;8.73;68.28
60345;BME280;46188;52.324;8.032;2023-04-26T08:58:20;100700.53;;;8.59;70.14
60345;BME280;46188;52.324;8.032;2023-04-26T09:00:46;100707.00;;;9.16;69.95
60345;BME280;46188;52.324;8.032;2023-04-26T09:03:12;100705.88;;;9.95;68.56
60345;BME280;46188;52.324;8.032;2023-04-26T09:05:38;100703.63;;;10.18;66.54
60345;BME280;46188;52.324;8.032;2023-04-26T09:08:05;100699.63;;;10.42;66.30
60345;BME280;46188;52.324;8.032;2023-04-26T09:10:31;100695.34;;;10.48;66.24
60345;BME280;46188;52.324;8.032;2023-04-26T09:12:57;100703.69;;;10.24;66.66
60345;BME280;46188;52.324;8.032;2023-04-26T09:15:24;100705.38;;;9.67;66.90
60345;BME280;46188;52.324;8.032;2023-04-26T09:17:50;100713.38;;;9.28;66.76
60345;BME280;46188;52.324;8.032;2023-04-26T09:20:19;100711.34;;;9.57;66.12
60345;BME280;46188;52.324;8.032;2023-04-26T09:22:47;100704.34;;;9.59;66.31
60345;BME280;46188;52.324;8.032;2023-04-26T09:25:13;100708.00;;;9.67;66.72
60345;BME280;46188;52.324;8.032;2023-04-26T09:27:41;100705.94;;;9.51;66.36
60345;BME280;46188;52.324;8.032;2023-04-26T09:30:15;100703.94;;;8.95;65.59
60345;BME280;46188;52.324;8.032;2023-04-26T09:32:57;100712.59;;;8.49;65.62
60345;BME280;46188;52.324;8.032;2023-04-26T09:40:25;100726.75;;;7.86;68.68
60345;BME280;46188;52.324;8.032;2023-04-26T09:43:00;100723.00;;;7.76;68.83
60345;BME280;46188;52.324;8.032;2023-04-26T09:45:28;100722.00;;;7.71;68.76
60345;BME280;46188;52.324;8.032;2023-04-26T09:47:53;100721.13;;;7.72;69.67
60345;BME280;46188;52.324;8.032;2023-04-26T09:50:27;100721.09;;;7.71;69.90
60345;BME280;46188;52.324;8.032;2023-04-26T09:52:52;100726.84;;;7.57;69.90
60345;BME280;46188;52.324;8.032;2023-04-26T09:55:28;100732.31;;;7.65;70.12
60345;BME280;46188;52.324;8.032;2023-04-26T09:57:55;100729.09;;;7.75;70.64
60345;BME280;46188;52.324;8.032;2023-04-26T10:00:21;100733.53;;;7.78;71.06
60345;BME280;46188;52.324;8.032;2023-04-26T10:02:48;100726.91;;;7.59;70.54
60345;BME280;46188;52.324;8.032;2023-04-26T10:05:13;100728.88;;;7.68;71.61
60345;BME280;46188;52.324;8.032;2023-04-26T10:07:38;100728.22;;;7.75;72.42
60345;BME280;46188;52.324;8.032;2023-04-26T10:10:06;100726.47;;;7.75;73.08
60345;BME280;46188;52.324;8.032;2023-04-26T10:12:33;100729.81;;;7.70;73.13
60345;BME280;46188;52.324;8.032;2023-04-26T10:14:58;100738.41;;;7.64;74.35
60345;BME280;46188;52.324;8.032;2023-04-26T10:17:23;100735.72;;;7.63;75.17
60345;BME280;46188;52.324;8.032;2023-04-26T10:19:56;100727.00;;;7.62;74.38
60345;BME280;46188;52.324;8.032;2023-04-26T10:22:27;100717.72;;;7.75;75.03
60345;BME280;46188;52.324;8.032;2023-04-26T10:24:53;100717.91;;;7.83;74.59
60345;BME280;46188;52.324;8.032;2023-04-26T10:27:46;100719.19;;;7.99;74.71
60345;BME280;46188;52.324;8.032;2023-04-26T10:30:15;100716.97;;;8.16;73.96
60345;BME280;46188;52.324;8.032;2023-04-26T10:35:22;100707.97;;;8.42;71.90
60345;BME280;46188;52.324;8.032;2023-04-26T10:40:30;100704.13;;;9.02;68.28
60345;BME280;46188;52.324;8.032;2023-04-26T10:45:33;100696.69;;;8.83;69.04
60345;BME280;46188;52.324;8.032;2023-04-26T10:48:16;100692.19;;;8.77;69.44
60345;BME280;46188;52.324;8.032;2023-04-26T10:58:49;100692.41;;;8.48;68.86
60345;BME280;46188;52.324;8.032;2023-04-26T11:01:31;100691.50;;;8.46;68.69
60345;BME280;46188;52.324;8.032;2023-04-26T11:06:22;100684.25;;;8.38;67.95
60345;BME280;46188;52.324;8.032;2023-04-26T11:08:47;100697.13;;;8.27;68.49
60345;BME280;46188;52.324;8.032;2023-04-26T11:11:15;100684.09;;;8.31;68.86
60345;BME280;46188;52.324;8.032;2023-04-26T11:13:41;100689.31;;;8.30;68.42
60345;BME280;46188;52.324;8.032;2023-04-26T11:16:09;100700.47;;;8.20;68.75
60345;BME280;46188;52.324;8.032;2023-04-26T11:18:36;100696.72;;;8.10;69.78
60345;BME280;46188;52.324;8.032;2023-04-26T11:21:03;100688.56;;;8.36;70.04
60345;BME280;46188;52.324;8.032;2023-04-26T11:23:30;100691.09;;;8.67;69.32
60345;BME280;46188;52.324;8.032;2023-04-26T11:25:57;100686.72;;;8.68;68.52
60345;BME280;46188;52.324;8.032;2023-04-26T11:28:22;100696.31;;;8.66;68.16
60345;BME280;46188;52.324;8.032;2023-04-26T11:30:51;100695.38;;;9.05;67.58
60345;BME280;46188;52.324;8.032;2023-04-26T11:33:18;100685.94;;;9.60;66.47
60345;BME280;46188;52.324;8.032;2023-04-26T11:36:02;100687.13;;;9.76;65.26
60345;BME280;46188;52.324;8.032;2023-04-26T11:38:28;100688.88;;;9.77;64.74
60345;BME280;46188;52.324;8.032;2023-04-26T11:40:55;100676.53;;;9.73;62.34
60345;BME280;46188;52.324;8.032;2023-04-26T11:43:21;100685.25;;;10.24;61.60
60345;BME280;46188;52.324;8.032;2023-04-26T11:45:46;100683.94;;;10.49;61.46
60345;BME280;46188;52.324;8.032;2023-04-26T11:48:12;100688.69;;;10.75;60.47
60345;BME280;46188;52.324;8.032;2023-04-26T11:50:38;100690.00;;;11.10;59.60
60345;BME280;46188;52.324;8.032;2023-04-26T11:53:05;100698.16;;;11.30;58.32
60345;BME280;46188;52.324;8.032;2023-04-26T11:55:32;100691.09;;;11.29;57.68
60345;BME280;46188;52.324;8.032;2023-04-26T11:58:08;100692.91;;;11.31;56.46
60345;BME280;46188;52.324;8.032;2023-04-26T12:00:34;100690.81;;;11.82;57.22
60345;BME280;46188;52.324;8.032;2023-04-26T12:03:04;100687.25;;;11.81;57.17
60345;BME280;46188;52.324;8.032;2023-04-26T12:05:29;100689.91;;;11.78;58.02
60345;BME280;46188;52.324;8.032;2023-04-26T12:07:56;100686.09;;;11.53;56.15
60345;BME280;46188;52.324;8.032;2023-04-26T12:10:31;100690.16;;;11.23;57.11
60345;BME280;46188;52.324;8.032;2023-04-26T12:12:58;100686.31;;;10.95;57.26
60345;BME280;46188;52.324;8.032;2023-04-26T12:15:27;100691.25;;;10.70;58.64
60345;BME280;46188;52.324;8.032;2023-04-26T12:17:59;100688.56;;;10.11;56.28
60345;BME280;46188;52.324;8.032;2023-04-26T12:20:26;100696.09;;;9.89;59.11
60345;BME280;46188;52.324;8.032;2023-04-26T12:23:01;100698.69;;;9.86;59.80
60345;BME280;46188;52.324;8.032;2023-04-26T12:25:27;100699.53;;;9.84;60.61
60345;BME280;46188;52.324;8.032;2023-04-26T12:27:53;100694.94;;;9.72;59.95
60345;BME280;46188;52.324;8.032;2023-04-26T12:30:18;100696.44;;;9.59;60.60
60345;BME280;46188;52.324;8.032;2023-04-26T12:32:43;100696.03;;;9.37;60.40
60345;BME280;46188;52.324;8.032;2023-04-26T12:35:09;100693.72;;;9.10;60.30
60345;BME280;46188;52.324;8.032;2023-04-26T12:37:34;100689.09;;;8.98;61.01
60345;BME280;46188;52.324;8.032;2023-04-26T12:40:00;100696.88;;;8.92;61.21
60345;BME280;46188;52.324;8.032;2023-04-26T12:42:25;100701.03;;;8.81;61.52
60345;BME280;46188;52.324;8.032;2023-04-26T12:44:50;100702.50;;;8.68;61.84
60345;BME280;46188;52.324;8.032;2023-04-26T12:47:16;100692.66;;;8.59;61.58
60345;BME280;46188;52.324;8.032;2023-04-26T12:49:41;100696.06;;;8.55;61.99
60345;BME280;46188;52.324;8.032;2023-04-26T12:52:07;100696.91;;;8.53;62.30
60345;BME280;46188;52.324;8.032;2023-04-26T12:54:32;100699.53;;;8.53;63.03
60345;BME280;46188;52.324;8.032;2023-04-26T12:56:57;100703.13;;;8.58;63.54
60345;BME280;46188;52.324;8.032;2023-04-26T12:59:22;100700.50;;;8.58;64.22
60345;BME280;46188;52.324;8.032;2023-04-26T13:01:48;100699.38;;;8.46;64.89
60345;BME280;46188;52.324;8.032;2023-04-26T13:04:13;100703.88;;;8.52;65.19
60345;BME280;46188;52.324;8.032;2023-04-26T13:06:39;100697.81;;;8.55;65.33
60345;BME280;46188;52.324;8.032;2023-04-26T13:09:04;100699.59;;;8.56;65.27
60345;BME280;46188;52.324;8.032;2023-04-26T13:11:32;100701.56;;;8.66;65.20